Willow Springs, Illinois
Current Conditions -  °F | °C
As of 6:53 PM on Thursday 18 Dec 2014 (Local Time) from KMDW Reporting Station
Overcast Overcast  
Wind Chill: 30°   Ceiling: 2600
Heat Index: 30°   Visibility: 10mi
Dew Point: 20°   Wind: 3mph
Humidity: 66%   Direction: 270°W
Pressure: 30.25"   Gusts: NA
Location:  41.74°N, 87.86°W
Report Text: KMDW 190053Z 27003KT 10SM OVC026 M01/M07 A3025 RMK AO2 SLP259 T10111067
Loading
Personal Weather Stations






























Interactive Weather Map New forecast layout! Learn more

10-Day Weather Forecast

Advertisements
Track Severe Weather on mobile